createdAt,value
2019-03-19T00:00:20.796Z,49.28
2019-03-19T00:02:50.037Z,49.02
2019-03-19T00:05:19.231Z,48.75
2019-03-19T00:07:48.359Z,48.65
2019-03-19T00:10:17.590Z,48.63
2019-03-19T00:12:46.698Z,48.74
2019-03-19T00:15:15.916Z,48.63
2019-03-19T00:17:45.128Z,48.67
2019-03-19T00:20:15.652Z,48.47
2019-03-19T00:22:44.952Z,48.37
2019-03-19T00:25:14.188Z,48.32
2019-03-19T00:27:43.310Z,48.36
2019-03-19T00:30:14.211Z,47.97
2019-03-19T00:32:43.446Z,48.00
2019-03-19T00:35:12.696Z,47.92
2019-03-19T00:37:41.891Z,48.02
2019-03-19T00:40:15.194Z,47.97
2019-03-19T00:42:44.384Z,47.92
2019-03-19T00:45:14.578Z,48.04
2019-03-19T00:47:43.814Z,48.07
2019-03-19T00:50:15.050Z,48.06
2019-03-19T00:52:44.237Z,48.12
2019-03-19T00:55:13.870Z,48.12
2019-03-19T00:57:43.053Z,48.17
2019-03-19T01:00:20.337Z,47.93
2019-03-19T01:02:49.574Z,48.00
2019-03-19T01:05:18.775Z,47.71
2019-03-19T01:07:48.002Z,47.87
2019-03-19T01:10:17.856Z,47.81
2019-03-19T01:12:47.193Z,47.84
2019-03-19T01:15:16.412Z,47.78
2019-03-19T01:17:45.608Z,47.92
2019-03-19T01:20:16.493Z,47.87
2019-03-19T01:22:45.725Z,47.95
2019-03-19T01:25:14.922Z,47.96
2019-03-19T01:27:44.051Z,47.84
2019-03-19T01:30:17.029Z,47.64
2019-03-19T01:32:46.146Z,47.64
2019-03-19T01:35:15.424Z,47.99
2019-03-19T01:37:44.578Z,48.51
2019-03-19T01:40:14.115Z,48.19
2019-03-19T01:42:43.310Z,48.27
2019-03-19T01:45:15.472Z,48.39
2019-03-19T01:47:44.674Z,48.58
2019-03-19T01:50:16.878Z,48.75
2019-03-19T01:52:46.062Z,48.75
2019-03-19T01:55:15.853Z,48.60
2019-03-19T01:57:45.114Z,48.71
2019-03-19T02:00:18.569Z,48.79
2019-03-19T02:02:47.759Z,48.76
2019-03-19T02:05:17.228Z,48.56
2019-03-19T02:07:46.391Z,48.42
2019-03-19T02:10:15.713Z,48.43
2019-03-19T02:12:45.004Z,48.21
2019-03-19T02:15:16.049Z,48.20
2019-03-19T02:17:45.237Z,48.31
2019-03-19T02:20:18.100Z,48.44
2019-03-19T02:22:47.340Z,48.25
2019-03-19T02:25:16.530Z,48.30
2019-03-19T02:27:45.682Z,48.21
2019-03-19T02:30:16.334Z,48.10
2019-03-19T02:32:45.485Z,48.26
2019-03-19T02:35:14.845Z,48.09
2019-03-19T02:37:44.064Z,48.24
2019-03-19T02:40:17.175Z,48.37
2019-03-19T02:42:46.197Z,48.39
2019-03-19T02:45:17.051Z,48.38
2019-03-19T02:47:46.221Z,48.34
2019-03-19T02:50:16.721Z,48.52
2019-03-19T02:52:45.999Z,48.82
2019-03-19T02:55:15.195Z,48.76
2019-03-19T02:57:44.318Z,48.67
2019-03-19T03:00:19.489Z,48.95
2019-03-19T03:02:48.721Z,49.22
2019-03-19T03:05:19.660Z,49.61
2019-03-19T03:07:48.907Z,49.55
2019-03-19T03:10:18.119Z,49.55
2019-03-19T03:12:47.320Z,49.87
2019-03-19T03:15:18.224Z,50.40
2019-03-19T03:17:47.437Z,50.36
2019-03-19T03:20:19.562Z,50.94
2019-03-19T03:22:48.794Z,50.94
2019-03-19T03:25:18.643Z,51.49
2019-03-19T03:27:47.864Z,51.60
2019-03-19T03:30:22.532Z,51.75
2019-03-19T03:32:52.101Z,51.75
2019-03-19T03:35:21.578Z,51.90
2019-03-19T03:37:50.805Z,52.06
2019-03-19T03:40:20.799Z,52.34
2019-03-19T03:42:49.998Z,52.55
2019-03-19T03:45:20.042Z,52.81
2019-03-19T03:47:49.149Z,53.09
2019-03-19T03:50:19.153Z,53.34
2019-03-19T03:52:48.407Z,53.34
2019-03-19T03:55:21.305Z,53.86
2019-03-19T03:57:50.452Z,54.49
2019-03-19T04:00:23.641Z,54.49
2019-03-19T04:02:53.663Z,54.30
2019-03-19T04:05:22.943Z,54.33
2019-03-19T04:07:52.066Z,54.76
2019-03-19T04:10:21.248Z,54.76
2019-03-19T04:12:50.447Z,54.90
2019-03-19T04:15:19.921Z,55.34
2019-03-19T04:17:49.076Z,55.34
2019-03-19T04:20:18.962Z,55.28
2019-03-19T04:22:48.120Z,55.53
2019-03-19T04:25:17.328Z,55.57
2019-03-19T04:27:46.450Z,55.69
2019-03-19T04:30:20.222Z,55.77
2019-03-19T04:32:49.395Z,56.08
2019-03-19T04:35:18.668Z,56.08
2019-03-19T04:37:47.828Z,56.20
2019-03-19T04:40:17.414Z,56.20
2019-03-19T04:42:46.615Z,56.04
2019-03-19T04:45:16.654Z,56.44
2019-03-19T04:47:45.767Z,56.44
2019-03-19T04:50:15.868Z,56.67
2019-03-19T04:52:45.060Z,56.67
2019-03-19T04:55:17.930Z,56.65
2019-03-19T04:57:47.069Z,56.63
2019-03-19T05:00:20.663Z,56.61
2019-03-19T05:02:49.857Z,56.49
2019-03-19T05:05:19.059Z,56.35
2019-03-19T05:07:48.291Z,56.62
2019-03-19T05:10:18.476Z,56.78
2019-03-19T05:12:47.611Z,56.72
2019-03-19T05:15:16.859Z,56.95
2019-03-19T05:17:46.034Z,56.97
2019-03-19T05:20:18.722Z,56.99
2019-03-19T05:22:47.959Z,57.01
2019-03-19T05:25:17.142Z,56.49
2019-03-19T05:27:46.299Z,56.49
2019-03-19T05:30:17.877Z,56.70
2019-03-19T05:32:47.077Z,56.29
2019-03-19T05:35:16.214Z,55.78
2019-03-19T05:37:45.439Z,55.99
2019-03-19T05:40:18.379Z,56.15
2019-03-19T05:42:47.688Z,55.45
2019-03-19T05:45:17.349Z,55.75
2019-03-19T05:47:46.466Z,55.97
2019-03-19T05:50:20.364Z,55.97
2019-03-19T05:52:49.542Z,56.02
2019-03-19T05:55:18.734Z,55.82
2019-03-19T05:57:50.029Z,55.82
2019-03-19T06:00:23.892Z,56.04
2019-03-19T06:02:52.952Z,55.79
2019-03-19T06:05:22.172Z,55.85
2019-03-19T06:07:51.245Z,55.35
2019-03-19T06:10:20.642Z,55.18
2019-03-19T06:12:49.885Z,55.18
2019-03-19T06:15:19.273Z,55.38
2019-03-19T06:17:48.398Z,55.03
2019-03-19T06:20:21.121Z,55.03
2019-03-19T06:22:50.299Z,54.38
2019-03-19T06:25:19.481Z,54.04
2019-03-19T06:27:59.558Z,53.52
2019-03-19T06:30:23.400Z,53.14
2019-03-19T06:32:52.593Z,52.96
2019-03-19T06:35:21.883Z,52.76
2019-03-19T06:37:51.059Z,53.13
2019-03-19T06:40:21.459Z,52.62
2019-03-19T06:42:50.591Z,51.74
2019-03-19T06:45:22.888Z,51.29
2019-03-19T06:47:51.433Z,51.54
2019-03-19T06:50:21.563Z,51.03
2019-03-19T06:52:50.741Z,50.86
2019-03-19T06:55:20.527Z,49.14
2019-03-19T06:57:49.647Z,48.42
2019-03-19T07:00:22.845Z,47.78
2019-03-19T07:02:52.243Z,47.20
2019-03-19T07:05:21.980Z,46.94
2019-03-19T07:07:51.289Z,46.78
2019-03-19T07:10:21.505Z,46.52
2019-03-19T07:12:50.701Z,45.95
2019-03-19T07:15:21.913Z,45.27
2019-03-19T07:17:51.105Z,44.92
2019-03-19T07:20:27.510Z,44.73
2019-03-19T07:22:56.643Z,45.13
2019-03-19T07:25:25.829Z,44.93
2019-03-19T07:27:55.070Z,44.15
2019-03-19T07:30:26.404Z,45.00
2019-03-19T07:32:55.625Z,45.35
2019-03-19T07:35:24.841Z,44.79
2019-03-19T07:37:54.008Z,44.56
2019-03-19T07:40:23.157Z,45.64
2019-03-19T07:42:52.302Z,44.59
2019-03-19T07:45:22.327Z,44.45
2019-03-19T07:47:51.523Z,44.90
2019-03-19T07:50:22.795Z,43.09
2019-03-19T07:52:51.990Z,42.01
2019-03-19T07:55:21.132Z,41.28
2019-03-19T07:57:50.355Z,40.32
2019-03-19T08:00:23.299Z,39.68
2019-03-19T08:02:52.512Z,39.96
2019-03-19T08:05:32.307Z,38.87
2019-03-19T08:07:52.684Z,38.58
2019-03-19T08:10:21.901Z,37.80
2019-03-19T08:12:51.071Z,36.72
2019-03-19T08:15:21.178Z,36.49
2019-03-19T08:17:50.705Z,36.05
2019-03-19T08:20:19.936Z,35.14
2019-03-19T08:22:49.160Z,34.75
2019-03-19T08:25:18.383Z,34.42
2019-03-19T08:27:47.653Z,35.15
2019-03-19T08:30:29.050Z,35.11
2019-03-19T08:32:58.282Z,35.67
2019-03-19T08:35:27.419Z,36.44
2019-03-19T08:37:56.639Z,36.36
2019-03-19T08:40:25.839Z,37.97
2019-03-19T08:42:55.068Z,38.30
2019-03-19T08:45:25.755Z,38.55
2019-03-19T08:47:54.984Z,37.46
2019-03-19T08:50:24.588Z,37.02
2019-03-19T08:52:55.487Z,37.79
2019-03-19T08:55:24.612Z,38.59
2019-03-19T08:57:53.917Z,38.48
2019-03-19T09:00:25.140Z,38.09
2019-03-19T09:02:54.287Z,37.77
2019-03-19T09:05:23.488Z,36.34
2019-03-19T09:07:52.615Z,36.99
2019-03-19T09:10:22.153Z,37.77
2019-03-19T09:12:51.323Z,38.12
2019-03-19T09:15:22.420Z,38.05
2019-03-19T09:17:51.600Z,37.40
2019-03-19T09:20:20.784Z,37.66
2019-03-19T09:22:49.982Z,38.03
2019-03-19T09:25:19.431Z,37.50
2019-03-19T09:27:48.491Z,37.90
2019-03-19T09:30:18.588Z,37.40
2019-03-19T09:32:47.749Z,37.98
2019-03-19T09:35:16.951Z,37.91
2019-03-19T09:37:57.227Z,36.54
2019-03-19T09:40:18.289Z,35.94
2019-03-19T09:42:47.797Z,36.24
2019-03-19T09:45:18.108Z,35.94
2019-03-19T09:47:47.598Z,35.19
2019-03-19T09:50:20.757Z,35.27
2019-03-19T09:52:49.955Z,35.67
2019-03-19T09:55:19.333Z,35.82
2019-03-19T09:57:48.555Z,35.94
2019-03-19T10:00:21.730Z,35.31
2019-03-19T10:02:50.972Z,35.12
2019-03-19T10:05:20.275Z,34.57
2019-03-19T10:07:49.400Z,36.12
2019-03-19T10:10:21.692Z,35.69
2019-03-19T10:12:50.963Z,35.56
2019-03-19T10:15:20.658Z,35.38
2019-03-19T10:17:49.793Z,35.44
2019-03-19T10:20:25.985Z,36.12
2019-03-19T10:22:55.238Z,36.37
2019-03-19T10:25:24.524Z,37.02
2019-03-19T10:27:53.658Z,37.85
2019-03-19T10:30:25.768Z,36.81
2019-03-19T10:32:55.048Z,35.48
2019-03-19T10:35:24.317Z,35.25
2019-03-19T10:37:53.688Z,34.26
2019-03-19T10:40:23.341Z,33.82
2019-03-19T10:42:52.472Z,34.58
2019-03-19T10:45:25.111Z,35.45
2019-03-19T10:47:54.344Z,35.54
2019-03-19T10:50:24.254Z,36.13
2019-03-19T10:52:53.537Z,36.25
2019-03-19T10:55:22.782Z,36.35
2019-03-19T10:57:52.057Z,36.21
2019-03-19T11:00:22.573Z,35.87
2019-03-19T11:02:52.495Z,35.67
2019-03-19T11:05:22.809Z,37.07
2019-03-19T11:07:52.317Z,36.55
2019-03-19T11:10:22.061Z,36.34
2019-03-19T11:12:51.365Z,35.62
2019-03-19T11:15:21.577Z,35.88
2019-03-19T11:17:50.845Z,36.34
2019-03-19T11:20:20.645Z,36.93
2019-03-19T11:22:49.952Z,36.10
2019-03-19T11:25:27.320Z,35.74
2019-03-19T11:27:56.576Z,34.90
2019-03-19T11:30:26.648Z,34.08
2019-03-19T11:32:55.892Z,32.99
2019-03-19T11:35:25.793Z,31.41
2019-03-19T11:37:54.990Z,31.68
2019-03-19T11:40:25.764Z,32.12
2019-03-19T11:42:55.075Z,32.07
2019-03-19T11:45:24.888Z,33.07
2019-03-19T11:47:54.113Z,34.46
2019-03-19T11:50:25.552Z,33.20
2019-03-19T11:52:54.751Z,31.28
2019-03-19T11:55:23.939Z,30.45
2019-03-19T11:57:53.254Z,29.68
2019-03-19T12:00:47.175Z,30.39
2019-03-19T12:03:16.785Z,31.44
2019-03-19T12:05:46.015Z,30.96
2019-03-19T12:08:15.273Z,30.62
2019-03-19T12:10:44.482Z,32.20
2019-03-19T12:13:13.781Z,30.95
2019-03-19T12:15:42.960Z,31.19
2019-03-19T12:18:12.166Z,31.76
2019-03-19T12:20:41.375Z,32.39
2019-03-19T12:23:10.923Z,31.17
2019-03-19T12:25:40.179Z,31.08
2019-03-19T12:28:09.350Z,30.08
2019-03-19T12:30:38.632Z,31.65
2019-03-19T12:33:07.852Z,32.08
2019-03-19T12:35:37.056Z,31.85
2019-03-19T12:38:06.380Z,31.77
2019-03-19T12:40:37.217Z,31.38
2019-03-19T12:43:06.791Z,31.66
2019-03-19T12:45:36.035Z,32.73
2019-03-19T12:48:05.743Z,32.56
2019-03-19T12:50:34.952Z,32.54
2019-03-19T12:53:04.220Z,33.10
2019-03-19T12:55:33.509Z,34.59
2019-03-19T12:58:02.728Z,33.48
2019-03-19T13:00:34.543Z,32.57
2019-03-19T13:03:02.873Z,32.38
2019-03-19T13:05:32.078Z,32.28
2019-03-19T13:08:01.353Z,34.10
2019-03-19T13:10:30.542Z,35.97
2019-03-19T13:12:59.659Z,35.96
2019-03-19T13:15:28.750Z,37.01
2019-03-19T13:17:57.957Z,37.45
2019-03-19T13:20:27.103Z,38.13
2019-03-19T13:22:56.350Z,38.10
2019-03-19T13:25:26.147Z,39.27
2019-03-19T13:27:55.358Z,39.65
2019-03-19T13:30:32.586Z,39.96
2019-03-19T13:33:01.783Z,40.08
2019-03-19T13:35:30.973Z,40.81
2019-03-19T13:38:00.151Z,41.42
2019-03-19T13:40:30.331Z,41.35
2019-03-19T13:42:59.394Z,41.67
2019-03-19T13:45:28.568Z,41.83
2019-03-19T13:47:57.688Z,42.38
2019-03-19T13:50:26.987Z,42.87
2019-03-19T13:52:56.240Z,42.85
2019-03-19T13:55:25.543Z,42.65
2019-03-19T13:57:54.762Z,42.72
2019-03-19T14:00:24.076Z,43.03
2019-03-19T14:02:53.201Z,42.63
2019-03-19T14:05:22.417Z,42.40
2019-03-19T14:07:51.752Z,42.35
2019-03-19T14:10:21.646Z,42.05
2019-03-19T14:12:50.924Z,42.25
2019-03-19T14:15:27.619Z,42.14
2019-03-19T14:17:56.901Z,42.06
2019-03-19T14:20:26.029Z,42.11
2019-03-19T14:22:55.336Z,42.03
2019-03-19T14:25:24.559Z,42.38
2019-03-19T14:27:53.700Z,42.46
2019-03-19T14:30:25.095Z,42.28
2019-03-19T14:32:54.302Z,42.29
2019-03-19T14:35:23.423Z,42.14
2019-03-19T14:37:52.656Z,41.98
2019-03-19T14:40:24.027Z,42.08
2019-03-19T14:42:53.250Z,42.03
2019-03-19T14:45:22.828Z,42.01
2019-03-19T14:47:52.028Z,42.24
2019-03-19T14:50:22.346Z,42.04
2019-03-19T14:52:51.657Z,42.47
2019-03-19T14:55:20.850Z,42.67
2019-03-19T14:57:51.086Z,42.21
2019-03-19T15:00:22.625Z,42.13
2019-03-19T15:02:51.769Z,42.24
2019-03-19T15:05:21.365Z,42.39
2019-03-19T15:07:50.610Z,42.54
2019-03-19T15:10:24.312Z,42.73
2019-03-19T15:12:53.538Z,42.86
2019-03-19T15:15:23.444Z,43.06
2019-03-19T15:17:52.656Z,43.27
2019-03-19T15:20:26.846Z,43.29
2019-03-19T15:22:56.073Z,43.28
2019-03-19T15:25:44.393Z,43.13
2019-03-19T15:28:13.559Z,43.00
2019-03-19T15:30:42.698Z,43.17
2019-03-19T15:33:11.929Z,43.15
2019-03-19T15:35:41.190Z,43.27
2019-03-19T15:38:10.322Z,43.29
2019-03-19T15:40:39.530Z,43.30
2019-03-19T15:43:08.778Z,43.29
2019-03-19T15:45:38.101Z,43.32
2019-03-19T15:48:07.317Z,43.53
2019-03-19T15:50:36.786Z,43.50
2019-03-19T15:53:06.098Z,43.46
2019-03-19T15:55:35.309Z,43.80
2019-03-19T15:58:04.899Z,44.05
2019-03-19T16:00:34.126Z,44.21
2019-03-19T16:03:03.403Z,44.29
2019-03-19T16:05:32.520Z,44.44
2019-03-19T16:08:01.719Z,44.48
2019-03-19T16:10:30.933Z,44.48
2019-03-19T16:13:00.200Z,44.66
2019-03-19T16:15:29.408Z,44.95
2019-03-19T16:17:58.648Z,45.27
2019-03-19T16:20:28.089Z,45.66
2019-03-19T16:22:57.302Z,45.84
2019-03-19T16:25:26.448Z,46.20
2019-03-19T16:27:55.694Z,46.54
2019-03-19T16:30:24.965Z,46.95
2019-03-19T16:32:54.291Z,47.66
2019-03-19T16:35:23.490Z,47.95
2019-03-19T16:37:52.679Z,48.35
2019-03-19T16:40:22.593Z,48.50
2019-03-19T16:42:51.863Z,48.69
2019-03-19T16:45:21.085Z,48.89
2019-03-19T16:47:50.377Z,48.99
2019-03-19T16:50:23.291Z,48.91
2019-03-19T16:52:52.525Z,49.15
2019-03-19T16:55:22.441Z,49.18
2019-03-19T16:57:51.683Z,49.18
2019-03-19T17:00:28.085Z,49.21
2019-03-19T17:02:57.216Z,49.30
2019-03-19T17:05:26.496Z,49.44
2019-03-19T17:07:55.761Z,49.44
2019-03-19T17:10:27.574Z,49.60
2019-03-19T17:12:57.130Z,49.72
2019-03-19T17:15:26.354Z,49.79
2019-03-19T17:17:55.504Z,49.89
2019-03-19T17:20:24.769Z,50.08
2019-03-19T17:22:54.037Z,49.94
2019-03-19T17:25:28.053Z,49.95
2019-03-19T17:27:58.151Z,50.16
2019-03-19T17:30:32.264Z,50.15
2019-03-19T17:33:01.511Z,50.25
2019-03-19T17:35:30.721Z,50.38
2019-03-19T17:37:59.924Z,50.39
2019-03-19T17:40:29.166Z,50.48
2019-03-19T17:42:58.422Z,50.62
2019-03-19T17:45:27.676Z,50.71
2019-03-19T17:47:56.932Z,50.70
2019-03-19T17:50:28.189Z,50.93
2019-03-19T17:52:57.705Z,50.73
2019-03-19T17:55:26.936Z,50.90
2019-03-19T17:57:56.179Z,51.00
2019-03-19T18:00:39.034Z,51.08
2019-03-19T18:03:08.297Z,51.05
2019-03-19T18:05:37.522Z,51.00
2019-03-19T18:08:06.995Z,51.24
2019-03-19T18:10:36.248Z,51.45
2019-03-19T18:13:06.727Z,51.86
2019-03-19T18:15:36.119Z,51.64
2019-03-19T18:18:05.463Z,51.63
2019-03-19T18:20:34.723Z,51.81
2019-03-19T18:23:04.074Z,51.53
2019-03-19T18:25:33.330Z,51.31
2019-03-19T18:28:02.643Z,51.43
2019-03-19T18:30:31.797Z,51.52
2019-03-19T18:33:00.988Z,51.78
2019-03-19T18:35:30.205Z,51.79
2019-03-19T18:37:59.357Z,51.76
2019-03-19T18:40:28.571Z,51.72
2019-03-19T18:42:57.710Z,51.60
2019-03-19T18:45:26.993Z,51.57
2019-03-19T18:47:56.221Z,51.60
2019-03-19T18:50:25.443Z,51.86
2019-03-19T18:52:54.643Z,51.95
2019-03-19T18:55:23.825Z,52.12
2019-03-19T18:57:53.146Z,52.23
2019-03-19T19:00:23.598Z,52.32
2019-03-19T19:02:53.078Z,52.18
2019-03-19T19:05:24.236Z,52.26
2019-03-19T19:07:53.462Z,52.55
2019-03-19T19:10:23.009Z,52.99
2019-03-19T19:12:52.255Z,53.09
2019-03-19T19:15:23.501Z,53.30
2019-03-19T19:17:52.767Z,53.65
2019-03-19T19:20:22.050Z,53.87
2019-03-19T19:22:51.192Z,54.18
2019-03-19T19:25:21.940Z,54.48
2019-03-19T19:27:51.085Z,54.51
2019-03-19T19:30:25.146Z,54.52
2019-03-19T19:33:01.450Z,54.39
2019-03-19T19:35:25.336Z,54.33
2019-03-19T19:37:54.612Z,54.91
2019-03-19T19:40:23.966Z,55.30
2019-03-19T19:42:53.040Z,55.74
2019-03-19T19:45:22.338Z,55.88
2019-03-19T19:47:51.599Z,56.03
2019-03-19T19:50:21.850Z,56.71
2019-03-19T19:52:51.171Z,57.08
2019-03-19T19:55:20.501Z,57.66
2019-03-19T19:57:49.778Z,58.57
2019-03-19T20:00:21.976Z,59.32
2019-03-19T20:02:51.543Z,59.84
2019-03-19T20:05:20.855Z,60.75
2019-03-19T20:07:50.126Z,60.48
2019-03-19T20:10:21.728Z,60.08
2019-03-19T20:12:50.956Z,60.30
2019-03-19T20:15:20.169Z,59.59
2019-03-19T20:17:49.433Z,59.78
2019-03-19T20:20:26.276Z,59.52
2019-03-19T20:22:55.565Z,59.63
2019-03-19T20:25:24.820Z,59.55
2019-03-19T20:27:54.119Z,59.61
2019-03-19T20:30:28.129Z,59.03
2019-03-19T20:32:57.389Z,59.14
2019-03-19T20:35:26.540Z,59.19
2019-03-19T20:37:55.898Z,59.26
2019-03-19T20:40:25.503Z,59.18
2019-03-19T20:42:54.810Z,59.23
2019-03-19T20:45:25.754Z,59.27
2019-03-19T20:47:54.971Z,59.16
2019-03-19T20:50:26.831Z,59.25
2019-03-19T20:52:56.054Z,59.71
2019-03-19T20:55:25.380Z,59.99
2019-03-19T20:57:54.895Z,60.17
2019-03-19T21:00:24.670Z,60.57
2019-03-19T21:02:54.008Z,60.08
2019-03-19T21:05:23.324Z,60.43
2019-03-19T21:07:52.624Z,60.71
2019-03-19T21:10:23.059Z,60.53
2019-03-19T21:12:52.583Z,59.86
2019-03-19T21:15:29.611Z,59.88
2019-03-19T21:17:58.882Z,59.30
2019-03-19T21:20:28.134Z,59.39
2019-03-19T21:22:57.438Z,58.94
2019-03-19T21:25:26.716Z,58.92
2019-03-19T21:27:56.119Z,58.09
2019-03-19T21:30:25.844Z,58.42
2019-03-19T21:32:55.245Z,58.23
2019-03-19T21:35:25.461Z,57.94
2019-03-19T21:37:54.698Z,58.18
2019-03-19T21:40:23.993Z,58.93
2019-03-19T21:42:53.215Z,59.78
2019-03-19T21:45:23.504Z,60.53
2019-03-19T21:47:52.664Z,61.43
2019-03-19T21:50:23.201Z,62.08
2019-03-19T21:52:52.895Z,62.60
2019-03-19T21:55:22.242Z,63.23
2019-03-19T21:57:51.385Z,63.68
2019-03-19T22:00:25.045Z,64.09
2019-03-19T22:02:54.403Z,64.55
2019-03-19T22:05:23.740Z,64.96
2019-03-19T22:07:52.972Z,65.09
2019-03-19T22:10:23.215Z,64.93
2019-03-19T22:12:52.458Z,64.80
2019-03-19T22:15:27.667Z,65.15
2019-03-19T22:17:56.885Z,65.35
2019-03-19T22:20:26.096Z,65.27
2019-03-19T22:22:55.369Z,65.24
2019-03-19T22:25:24.507Z,65.24
2019-03-19T22:27:53.805Z,65.14
2019-03-19T22:30:23.061Z,64.89
2019-03-19T22:32:52.278Z,64.73
2019-03-19T22:35:21.579Z,64.90
2019-03-19T22:37:50.679Z,64.60
2019-03-19T22:40:19.921Z,64.67
2019-03-19T22:42:49.184Z,64.15
2019-03-19T22:45:20.083Z,64.29
2019-03-19T22:47:49.231Z,64.02
2019-03-19T22:50:19.131Z,63.56
2019-03-19T22:52:48.411Z,63.36
2019-03-19T22:55:28.164Z,62.65
2019-03-19T22:57:48.631Z,62.50
2019-03-19T23:00:39.064Z,62.29
2019-03-19T23:03:08.975Z,62.16
2019-03-19T23:05:38.136Z,61.86
2019-03-19T23:08:07.601Z,61.72
2019-03-19T23:10:36.790Z,61.69
2019-03-19T23:13:05.988Z,61.75
2019-03-19T23:15:35.335Z,61.61
2019-03-19T23:18:04.649Z,61.47
2019-03-19T23:20:33.838Z,61.75
2019-03-19T23:23:03.082Z,61.81
2019-03-19T23:25:32.299Z,61.81
2019-03-19T23:28:01.499Z,61.94
2019-03-19T23:30:30.731Z,62.02
2019-03-19T23:32:59.949Z,61.92
2019-03-19T23:35:29.092Z,62.00
2019-03-19T23:37:58.352Z,61.73
2019-03-19T23:40:27.622Z,61.73
2019-03-19T23:42:56.751Z,61.67
2019-03-19T23:45:25.902Z,62.49
2019-03-19T23:47:55.126Z,62.49
2019-03-19T23:50:24.269Z,62.64
2019-03-19T23:52:53.350Z,62.97
2019-03-19T23:55:22.477Z,63.34
2019-03-19T23:57:51.679Z,63.34
